Time;durP1;ratioP1;P1;durP2;ratioP2;P2;SDS_P1;SDS_P2;PMS_P1;PMS_P2;Temp;Humidity;BMP_temperature;BMP_pressure;BME280_temperature;BME280_humidity;BME280_pressure;Samples;Min_cycle;Max_cycle;Signal;HPM_P1;HPM_P2
2021/09/14 00:01:17;;;;;;;14.80;8.68;;;;;;;;;;5030608;28;20075;-65
2021/09/14 00:03:42;;;;;;;12.70;8.30;;;;;;;;;;5031059;28;20503;-64
2021/09/14 00:06:07;;;;;;;12.35;8.50;;;;;;;;;;5029168;28;20375;-64
2021/09/14 00:08:33;;;;;;;14.83;9.03;;;;;;;;;;5025027;28;20465;-63
2021/09/14 00:10:58;;;;;;;12.55;9.27;;;;;;;;;;5020528;28;20435;-64
2021/09/14 00:13:23;;;;;;;12.23;8.70;;;;;;;;;;5026364;28;20330;-64
2021/09/14 00:15:48;;;;;;;12.63;8.35;;;;;;;;;;5031100;28;20021;-63
2021/09/14 00:18:14;;;;;;;11.30;7.97;;;;;;;;;;5027045;28;20033;-64
2021/09/14 00:20:39;;;;;;;9.90;7.60;;;;;;;;;;5018818;28;20330;-63
2021/09/14 00:23:04;;;;;;;11.90;8.37;;;;;;;;;;5028134;28;20330;-63
2021/09/14 00:25:30;;;;;;;10.32;7.72;;;;;;;;;;5031066;28;20656;-63
2021/09/14 00:27:55;;;;;;;10.73;7.50;;;;;;;;;;5021050;28;20048;-63
2021/09/14 00:30:20;;;;;;;11.13;8.03;;;;;;;;;;5029165;28;20037;-63
2021/09/14 00:32:45;;;;;;;9.52;7.75;;;;;;;;;;5020293;28;20532;-62
2021/09/14 00:35:11;;;;;;;10.07;7.87;;;;;;;;;;5031328;28;20053;-63
2021/09/14 00:37:36;;;;;;;9.48;7.68;;;;;;;;;;5027949;28;20276;-62
2021/09/14 00:40:01;;;;;;;11.02;8.63;;;;;;;;;;5026102;28;20021;-64
2021/09/14 00:42:27;;;;;;;10.75;7.85;;;;;;;;;;5024278;28;20038;-63
2021/09/14 00:44:52;;;;;;;11.20;7.60;;;;;;;;;;5018456;28;20061;-64
2021/09/14 00:47:17;;;;;;;9.27;7.53;;;;;;;;;;5027738;28;20536;-63
2021/09/14 00:49:42;;;;;;;9.93;7.22;;;;;;;;;;5028239;28;20280;-64
2021/09/14 00:52:08;;;;;;;9.70;6.90;;;;;;;;;;5025153;28;20083;-64
2021/09/14 00:54:36;;;;;;;10.75;7.82;;;;;;;;;;5028152;28;20040;-64
2021/09/14 00:57:02;;;;;;;9.57;6.70;;;;;;;;;;5026593;28;20057;-63
2021/09/14 00:59:27;;;;;;;9.93;7.47;;;;;;;;;;5023232;28;20473;-64
2021/09/14 01:01:53;;;;;;;10.63;7.22;;;;;;;;;;5021672;28;20017;-63
2021/09/14 01:04:18;;;;;;;9.52;7.25;;;;;;;;;;5024914;28;20044;-64
2021/09/14 01:06:43;;;;;;;10.63;7.82;;;;;;;;;;5024636;28;20025;-64
2021/09/14 01:09:09;;;;;;;9.65;7.82;;;;;;;;;;5020980;28;20049;-64
2021/09/14 01:11:34;;;;;;;9.20;6.95;;;;;;;;;;5020344;28;20229;-64
2021/09/14 01:14:03;;;;;;;11.00;8.13;;;;;;;;;;5020472;28;20453;-64
2021/09/14 01:16:29;;;;;;;8.60;6.60;;;;;;;;;;5027609;28;20029;-64
2021/09/14 01:18:54;;;;;;;10.15;7.15;;;;;;;;;;5027717;28;20055;-63
2021/09/14 01:21:20;;;;;;;10.47;7.07;;;;;;;;;;5025142;28;20030;-63
2021/09/14 01:23:45;;;;;;;10.27;7.43;;;;;;;;;;5022289;28;20303;-63
2021/09/14 01:26:11;;;;;;;9.27;6.50;;;;;;;;;;5017436;28;20034;-64
2021/09/14 01:28:36;;;;;;;8.93;6.53;;;;;;;;;;5024577;28;20342;-64
2021/09/14 01:31:01;;;;;;;9.50;6.80;;;;;;;;;;5024210;28;20049;-63
2021/09/14 01:33:26;;;;;;;11.35;6.45;;;;;;;;;;5024679;28;20296;-64
2021/09/14 01:35:51;;;;;;;8.55;6.18;;;;;;;;;;5026341;28;20083;-63
2021/09/14 01:38:16;;;;;;;8.52;6.30;;;;;;;;;;5027199;28;20059;-63
2021/09/14 01:40:46;;;;;;;9.55;7.00;;;;;;;;;;5027058;28;20064;-63
2021/09/14 01:43:12;;;;;;;9.98;7.03;;;;;;;;;;5027710;28;20158;-63
2021/09/14 01:45:37;;;;;;;9.15;6.60;;;;;;;;;;5027513;28;20491;-63
2021/09/14 01:48:02;;;;;;;8.27;6.15;;;;;;;;;;5020240;28;20072;-65
2021/09/14 01:50:27;;;;;;;10.00;6.88;;;;;;;;;;5029318;28;20067;-64
2021/09/14 01:52:53;;;;;;;9.65;7.22;;;;;;;;;;5020527;28;20462;-64
2021/09/14 01:55:19;;;;;;;9.43;6.70;;;;;;;;;;5025602;28;20484;-63
2021/09/14 01:57:44;;;;;;;10.07;6.90;;;;;;;;;;5017665;28;20025;-64
2021/09/14 02:00:15;;;;;;;10.32;8.07;;;;;;;;;;5028267;28;20030;-63
2021/09/14 02:08:00;;;;;;;11.70;7.25;;;;;;;;;;5019157;28;20022;-64
2021/09/14 02:40:17;;;;;;;10.20;7.40;;;;;;;;;;5027453;28;20080;-63
2021/09/14 02:58:37;;;;;;;10.55;6.93;;;;;;;;;;5021693;28;20064;-64
2021/09/14 02:59:09;;;;;;;9.90;6.18;;;;;;;;;;5017739;28;20029;-63
2021/09/14 03:01:34;;;;;;;9.85;6.63;;;;;;;;;;5021597;28;20075;-65
2021/09/14 03:03:59;;;;;;;8.85;6.60;;;;;;;;;;5026696;28;20026;-64
2021/09/14 03:06:24;;;;;;;8.80;6.30;;;;;;;;;;5024822;28;20128;-63
2021/09/14 03:08:50;;;;;;;9.33;6.87;;;;;;;;;;5019966;28;20029;-64
2021/09/14 03:11:16;;;;;;;8.98;6.72;;;;;;;;;;5025686;28;20292;-64
2021/09/14 03:13:41;;;;;;;8.18;6.18;;;;;;;;;;5017907;28;20608;-63
2021/09/14 03:16:08;;;;;;;7.90;6.45;;;;;;;;;;5017088;28;20113;-64
2021/09/14 03:18:33;;;;;;;8.85;6.00;;;;;;;;;;5015847;28;20026;-63
2021/09/14 03:20:59;;;;;;;8.85;6.15;;;;;;;;;;5023443;28;20458;-65
2021/09/14 03:23:24;;;;;;;10.18;7.05;;;;;;;;;;5016732;28;20389;-64
2021/09/14 03:25:50;;;;;;;10.38;6.95;;;;;;;;;;5022495;28;20393;-64
2021/09/14 03:28:16;;;;;;;10.00;7.35;;;;;;;;;;5023802;28;20026;-64
2021/09/14 03:30:41;;;;;;;8.63;6.55;;;;;;;;;;5022572;28;20572;-63
2021/09/14 03:33:07;;;;;;;9.57;6.70;;;;;;;;;;5027646;28;20029;-64
2021/09/14 03:35:32;;;;;;;8.73;6.38;;;;;;;;;;5022708;28;20036;-63
2021/09/14 03:37:57;;;;;;;8.07;5.80;;;;;;;;;;5021601;28;20036;-63
2021/09/14 03:40:22;;;;;;;7.97;6.37;;;;;;;;;;5019089;28;20032;-63
2021/09/14 03:42:48;;;;;;;9.85;6.78;;;;;;;;;;5024081;28;20290;-63
2021/09/14 03:45:13;;;;;;;10.60;7.47;;;;;;;;;;5022516;28;20033;-64
2021/09/14 03:47:38;;;;;;;8.23;6.55;;;;;;;;;;5025893;28;20426;-63
2021/09/14 03:50:04;;;;;;;8.33;6.27;;;;;;;;;;5026422;28;20029;-64
2021/09/14 03:52:29;;;;;;;7.30;5.68;;;;;;;;;;5022000;28;20640;-64
2021/09/14 03:54:54;;;;;;;8.80;6.38;;;;;;;;;;5027047;28;20021;-64
2021/09/14 03:57:20;;;;;;;8.60;6.63;;;;;;;;;;5023021;28;20065;-63
2021/09/14 03:59:45;;;;;;;9.40;6.78;;;;;;;;;;5026891;28;20272;-64
2021/09/14 04:05:30;;;;;;;9.05;6.28;;;;;;;;;;4995424;28;20053;-64
2021/09/14 04:10:36;;;;;;;8.10;5.93;;;;;;;;;;5004998;28;20038;-64
2021/09/14 04:13:01;;;;;;;8.57;6.30;;;;;;;;;;5000969;28;20050;-64
2021/09/14 04:15:26;;;;;;;10.35;6.88;;;;;;;;;;4999870;28;20108;-64
2021/09/14 04:17:52;;;;;;;7.90;6.18;;;;;;;;;;4991841;28;20390;-65
2021/09/14 04:20:17;;;;;;;8.90;6.30;;;;;;;;;;5001398;28;20030;-64
2021/09/14 04:22:42;;;;;;;9.45;6.80;;;;;;;;;;4997698;28;20332;-64
2021/09/14 04:25:07;;;;;;;8.57;6.10;;;;;;;;;;4992452;28;20022;-65
2021/09/14 04:27:33;;;;;;;8.45;6.45;;;;;;;;;;5001104;28;20038;-64
2021/09/14 04:29:58;;;;;;;12.70;6.43;;;;;;;;;;5000373;28;20030;-64
2021/09/14 04:32:23;;;;;;;10.67;6.57;;;;;;;;;;4998527;28;20291;-64
2021/09/14 04:34:48;;;;;;;8.20;6.27;;;;;;;;;;4995248;28;20321;-63
2021/09/14 04:37:13;;;;;;;9.23;6.33;;;;;;;;;;4998747;28;20523;-63
2021/09/14 04:39:38;;;;;;;10.05;7.15;;;;;;;;;;4995473;28;20284;-64
2021/09/14 04:42:04;;;;;;;8.70;6.47;;;;;;;;;;5011814;28;20151;-64
2021/09/14 04:44:29;;;;;;;7.95;6.22;;;;;;;;;;5023073;28;20283;-64
2021/09/14 04:46:54;;;;;;;8.63;5.70;;;;;;;;;;5018556;28;20037;-64
2021/09/14 04:49:19;;;;;;;9.80;6.15;;;;;;;;;;5029316;28;20040;-62
2021/09/14 04:51:44;;;;;;;9.20;6.83;;;;;;;;;;5024487;28;20041;-62
2021/09/14 04:54:09;;;;;;;9.40;6.43;;;;;;;;;;5028773;28;20282;-62
2021/09/14 04:56:35;;;;;;;8.85;5.85;;;;;;;;;;5022684;28;20033;-62
2021/09/14 04:59:00;;;;;;;10.05;6.50;;;;;;;;;;5022557;28;20382;-62
2021/09/14 05:01:25;;;;;;;8.43;5.85;;;;;;;;;;5026516;28;20057;-63
2021/09/14 05:03:50;;;;;;;12.68;6.90;;;;;;;;;;5027990;28;20396;-63
2021/09/14 05:06:15;;;;;;;8.43;6.13;;;;;;;;;;5029759;28;20388;-63
2021/09/14 05:08:41;;;;;;;7.88;5.95;;;;;;;;;;5029292;28;20496;-62
2021/09/14 05:11:06;;;;;;;7.72;6.25;;;;;;;;;;5020660;28;20030;-62
2021/09/14 05:13:31;;;;;;;9.68;6.30;;;;;;;;;;5026795;28;20385;-63
2021/09/14 05:15:57;;;;;;;9.27;5.93;;;;;;;;;;5016785;28;20040;-61
2021/09/14 05:18:23;;;;;;;11.82;6.43;;;;;;;;;;5037407;28;20026;-62
2021/09/14 05:20:50;;;;;;;9.30;6.15;;;;;;;;;;5023631;28;20337;-62
2021/09/14 05:23:16;;;;;;;9.63;6.30;;;;;;;;;;5027527;28;20025;-60
2021/09/14 05:25:43;;;;;;;9.07;6.32;;;;;;;;;;5024246;28;20032;-60
2021/09/14 05:28:11;;;;;;;9.45;6.35;;;;;;;;;;5027739;28;20284;-61
2021/09/14 05:30:36;;;;;;;7.93;5.75;;;;;;;;;;5025398;28;20025;-60
2021/09/14 05:33:01;;;;;;;11.70;6.18;;;;;;;;;;5027505;28;20026;-60
2021/09/14 05:35:31;;;;;;;8.90;5.53;;;;;;;;;;5025295;28;20120;-62
2021/09/14 05:37:56;;;;;;;;;;;;;;;;;;5028117;28;20053;-62
2021/09/14 05:40:21;;;;;;;10.07;5.65;;;;;;;;;;5024995;28;20047;-62
2021/09/14 05:42:47;;;;;;;9.10;6.43;;;;;;;;;;5017824;28;20395;-61
2021/09/14 05:45:13;;;;;;;8.83;6.10;;;;;;;;;;5027021;28;20683;-61
2021/09/14 05:47:38;;;;;;;10.80;6.40;;;;;;;;;;5027620;28;20280;-60
2021/09/14 05:50:03;;;;;;;11.63;5.90;;;;;;;;;;5019440;28;20288;-61
2021/09/14 05:52:28;;;;;;;8.20;5.68;;;;;;;;;;5023353;28;20303;-61
2021/09/14 05:54:53;;;;;;;8.80;5.18;;;;;;;;;;5025063;28;20069;-63
2021/09/14 05:57:19;;;;;;;8.63;5.10;;;;;;;;;;5028442;28;20029;-61
2021/09/14 05:59:44;;;;;;;9.53;5.37;;;;;;;;;;5025519;28;20269;-61
2021/09/14 06:02:09;;;;;;;7.68;4.35;;;;;;;;;;5020540;28;20370;-61
2021/09/14 06:04:34;;;;;;;8.07;4.60;;;;;;;;;;5025777;28;20472;-62
2021/09/14 06:06:59;;;;;;;6.73;4.00;;;;;;;;;;5023633;28;20349;-60
2021/09/14 06:09:24;;;;;;;5.30;3.80;;;;;;;;;;5028893;28;20706;-63
2021/09/14 06:11:50;;;;;;;8.80;4.63;;;;;;;;;;5026617;28;20119;-61
2021/09/14 06:14:15;;;;;;;6.20;4.03;;;;;;;;;;5021459;28;20108;-62
2021/09/14 06:16:40;;;;;;;8.63;4.40;;;;;;;;;;5023037;28;20314;-62
2021/09/14 06:19:06;;;;;;;7.13;3.83;;;;;;;;;;5021141;28;20363;-62
2021/09/14 06:21:32;;;;;;;6.75;3.90;;;;;;;;;;5041912;28;20041;-62
2021/09/14 06:23:57;;;;;;;5.55;4.05;;;;;;;;;;5018356;28;20052;-61
2021/09/14 06:26:23;;;;;;;8.63;4.30;;;;;;;;;;5013718;28;20073;-62
2021/09/14 06:28:48;;;;;;;8.20;4.53;;;;;;;;;;5016402;28;20441;-62
2021/09/14 06:31:14;;;;;;;5.07;3.70;;;;;;;;;;5024432;28;20297;-61
2021/09/14 06:33:39;;;;;;;7.90;4.60;;;;;;;;;;5027071;28;20767;-62
2021/09/14 06:36:04;;;;;;;7.00;4.30;;;;;;;;;;5020691;28;20440;-62
2021/09/14 06:38:29;;;;;;;8.38;4.63;;;;;;;;;;5017317;28;20352;-59
2021/09/14 06:40:55;;;;;;;6.55;4.45;;;;;;;;;;5026947;28;20796;-59
2021/09/14 06:43:20;;;;;;;7.60;4.53;;;;;;;;;;5020710;28;20024;-60
2021/09/14 06:45:46;;;;;;;7.73;3.97;;;;;;;;;;5020058;28;20319;-60
2021/09/14 06:48:15;;;;;;;6.05;4.40;;;;;;;;;;5022153;28;20268;-61
2021/09/14 06:50:41;;;;;;;6.68;4.15;;;;;;;;;;5029046;28;20091;-60
2021/09/14 06:53:06;;;;;;;6.47;3.80;;;;;;;;;;5044030;28;20393;-60
2021/09/14 06:55:31;;;;;;;6.88;3.90;;;;;;;;;;5020473;28;20288;-59
2021/09/14 06:57:56;;;;;;;9.97;4.67;;;;;;;;;;5038358;28;20018;-60
2021/09/14 07:00:22;;;;;;;4.40;3.40;;;;;;;;;;5027119;28;20745;-60
2021/09/14 07:02:47;;;;;;;8.57;3.95;;;;;;;;;;5025128;28;21223;-61
2021/09/14 07:05:12;;;;;;;8.53;4.00;;;;;;;;;;5026187;28;20139;-61
2021/09/14 07:07:38;;;;;;;5.47;4.10;;;;;;;;;;5012126;28;20291;-59
2021/09/14 07:10:03;;;;;;;7.90;4.27;;;;;;;;;;5027232;28;20279;-60
2021/09/14 07:12:29;;;;;;;6.20;3.92;;;;;;;;;;5016162;28;20394;-59
2021/09/14 07:14:54;;;;;;;7.05;4.20;;;;;;;;;;5023449;28;20042;-60
2021/09/14 07:17:19;;;;;;;6.27;4.17;;;;;;;;;;5016102;28;20110;-61
2021/09/14 07:19:44;;;;;;;5.97;3.90;;;;;;;;;;5028303;28;20271;-59
2021/09/14 07:22:10;;;;;;;10.25;4.53;;;;;;;;;;5021725;28;20033;-60
2021/09/14 07:24:35;;;;;;;10.48;3.58;;;;;;;;;;5028926;28;20078;-60
2021/09/14 07:27:00;;;;;;;5.68;4.03;;;;;;;;;;5023220;28;20136;-60
2021/09/14 07:29:25;;;;;;;7.00;3.75;;;;;;;;;;5022939;28;20465;-60
2021/09/14 07:31:50;;;;;;;6.87;4.03;;;;;;;;;;5023714;28;20591;-60
2021/09/14 07:34:16;;;;;;;10.40;4.35;;;;;;;;;;5022778;28;20357;-61
2021/09/14 07:36:41;;;;;;;7.45;4.05;;;;;;;;;;5028793;28;20502;-61
2021/09/14 07:39:06;;;;;;;6.80;3.63;;;;;;;;;;5026882;28;20041;-61
2021/09/14 07:41:31;;;;;;;5.97;4.47;;;;;;;;;;5027927;28;20311;-62
2021/09/14 07:43:56;;;;;;;5.77;4.10;;;;;;;;;;5025923;28;20265;-61
2021/09/14 07:46:21;;;;;;;5.60;3.77;;;;;;;;;;5023475;28;20312;-61
2021/09/14 07:48:47;;;;;;;5.07;3.90;;;;;;;;;;5018991;28;20272;-61
2021/09/14 07:51:12;;;;;;;5.55;3.97;;;;;;;;;;5020382;28;20799;-60
2021/09/14 07:53:37;;;;;;;5.20;3.63;;;;;;;;;;5027620;28;20024;-59
2021/09/14 07:56:02;;;;;;;4.68;3.47;;;;;;;;;;5024947;28;20061;-61
2021/09/14 07:58:28;;;;;;;5.55;3.78;;;;;;;;;;5024309;28;20044;-60
2021/09/14 08:00:53;;;;;;;7.10;3.70;;;;;;;;;;5015914;28;20025;-59
2021/09/14 08:03:18;;;;;;;6.83;4.00;;;;;;;;;;5016421;28;20269;-61
2021/09/14 08:05:43;;;;;;;7.20;3.70;;;;;;;;;;5026245;28;20295;-59
2021/09/14 08:08:08;;;;;;;7.40;3.67;;;;;;;;;;5027257;28;20278;-59
2021/09/14 08:10:34;;;;;;;7.75;4.00;;;;;;;;;;5025097;28;20334;-60
2021/09/14 08:12:59;;;;;;;5.97;4.18;;;;;;;;;;5028026;28;20065;-61
2021/09/14 08:15:25;;;;;;;7.57;3.90;;;;;;;;;;5023262;28;20041;-59
2021/09/14 08:17:50;;;;;;;7.60;4.32;;;;;;;;;;5029228;28;20355;-61
2021/09/14 08:20:15;;;;;;;5.57;4.17;;;;;;;;;;5030475;28;20026;-58
2021/09/14 08:22:41;;;;;;;8.23;4.20;;;;;;;;;;5029554;28;20283;-58
2021/09/14 08:25:07;;;;;;;6.47;4.20;;;;;;;;;;5026143;28;20017;-60
2021/09/14 08:27:32;;;;;;;5.68;3.92;;;;;;;;;;5027180;28;20044;-60
2021/09/14 08:29:57;;;;;;;5.13;3.53;;;;;;;;;;5031248;28;20018;-60
2021/09/14 08:32:22;;;;;;;5.88;3.72;;;;;;;;;;5026078;28;20048;-60
2021/09/14 08:34:48;;;;;;;5.95;3.90;;;;;;;;;;5031876;28;20025;-60
2021/09/14 08:37:13;;;;;;;6.47;4.00;;;;;;;;;;5027594;28;20022;-61
2021/09/14 08:39:38;;;;;;;8.50;4.18;;;;;;;;;;5026477;28;20025;-60
2021/09/14 08:42:04;;;;;;;4.85;3.53;;;;;;;;;;5026337;28;20254;-59
2021/09/14 08:44:29;;;;;;;5.95;4.00;;;;;;;;;;5031263;28;20045;-60
2021/09/14 08:46:54;;;;;;;6.85;4.05;;;;;;;;;;5028647;28;20090;-60
2021/09/14 08:49:19;;;;;;;5.32;3.67;;;;;;;;;;5027010;28;20105;-59
2021/09/14 08:51:45;;;;;;;6.32;3.65;;;;;;;;;;5029562;28;20049;-58
2021/09/14 08:54:10;;;;;;;4.68;3.55;;;;;;;;;;5028573;28;20032;-58
2021/09/14 08:56:35;;;;;;;8.45;3.97;;;;;;;;;;5029960;28;20041;-58
2021/09/14 08:59:01;;;;;;;8.55;4.00;;;;;;;;;;5025167;28;20024;-61
2021/09/14 09:01:27;;;;;;;6.50;3.78;;;;;;;;;;5027608;28;20036;-60
2021/09/14 09:03:55;;;;;;;10.00;4.20;;;;;;;;;;5020549;28;20025;-60
2021/09/14 09:06:29;;;;;;;6.87;3.60;;;;;;;;;;5025513;28;20029;-61
2021/09/14 09:08:54;;;;;;;7.68;3.80;;;;;;;;;;5022275;28;20018;-60
2021/09/14 09:11:19;;;;;;;6.80;4.10;;;;;;;;;;5016083;28;20440;-60
2021/09/14 09:13:45;;;;;;;5.28;3.95;;;;;;;;;;5029147;28;20118;-59
2021/09/14 09:16:19;;;;;;;5.13;4.20;;;;;;;;;;5028528;28;20025;-60
2021/09/14 09:18:47;;;;;;;6.20;3.55;;;;;;;;;;5026195;28;20413;-60
2021/09/14 09:21:12;;;;;;;7.75;4.55;;;;;;;;;;5030025;28;20026;-59
2021/09/14 09:23:38;;;;;;;7.43;4.00;;;;;;;;;;5020404;28;20022;-59
2021/09/14 09:26:04;;;;;;;8.50;4.03;;;;;;;;;;5026052;28;20827;-59
2021/09/14 09:28:29;;;;;;;8.65;3.60;;;;;;;;;;5029247;28;20265;-61
2021/09/14 09:30:55;;;;;;;4.80;3.70;;;;;;;;;;5027225;28;20040;-59
2021/09/14 09:33:28;;;;;;;6.10;3.63;;;;;;;;;;5029953;28;20025;-61
2021/09/14 09:36:19;;;;;;;5.40;3.72;;;;;;;;;;5026005;28;20021;-60
2021/09/14 09:38:46;;;;;;;5.68;3.63;;;;;;;;;;5022363;28;20168;-60
2021/09/14 09:41:18;;;;;;;6.32;3.53;;;;;;;;;;5022036;28;20060;-60
2021/09/14 09:43:43;;;;;;;8.63;3.47;;;;;;;;;;5028149;28;20112;-60
2021/09/14 09:46:10;;;;;;;6.05;3.15;;;;;;;;;;5025205;28;20180;-60
2021/09/14 09:48:36;;;;;;;4.88;3.40;;;;;;;;;;5024509;28;20033;-60
2021/09/14 09:51:01;;;;;;;5.03;3.33;;;;;;;;;;5022812;28;20036;-59
2021/09/14 09:53:26;;;;;;;6.28;3.53;;;;;;;;;;5025778;28;20030;-60
2021/09/14 09:55:52;;;;;;;6.03;3.60;;;;;;;;;;5025537;28;20022;-60
2021/09/14 09:58:17;;;;;;;5.68;3.60;;;;;;;;;;5029526;28;20252;-60
2021/09/14 10:00:52;;;;;;;5.60;3.67;;;;;;;;;;5022124;28;20556;-59
2021/09/14 10:03:18;;;;;;;6.15;3.60;;;;;;;;;;5019893;28;20087;-59
2021/09/14 10:05:45;;;;;;;8.73;3.50;;;;;;;;;;5016648;28;20140;-60
2021/09/14 10:08:15;;;;;;;5.43;3.53;;;;;;;;;;5013761;28;20036;-60
2021/09/14 10:10:42;;;;;;;5.20;3.03;;;;;;;;;;5020137;28;20369;-59
2021/09/14 10:13:08;;;;;;;8.27;3.17;;;;;;;;;;5014773;28;20071;-60
2021/09/14 10:15:40;;;;;;;4.65;3.47;;;;;;;;;;5022042;28;20131;-60
2021/09/14 10:18:06;;;;;;;5.72;3.35;;;;;;;;;;5015792;28;20033;-60
2021/09/14 10:20:36;;;;;;;11.02;3.60;;;;;;;;;;5019666;28;20029;-60
2021/09/14 10:23:05;;;;;;;7.68;3.15;;;;;;;;;;5021661;28;20112;-59
2021/09/14 10:25:31;;;;;;;5.18;3.40;;;;;;;;;;5017817;28;20031;-60
2021/09/14 10:28:05;;;;;;;5.67;3.23;;;;;;;;;;5023405;28;20025;-60
2021/09/14 10:30:30;;;;;;;4.22;3.13;;;;;;;;;;5024820;28;20375;-60
2021/09/14 10:32:56;;;;;;;5.28;3.42;;;;;;;;;;5025248;28;20155;-60
2021/09/14 10:35:25;;;;;;;4.43;3.20;;;;;;;;;;5022546;28;20018;-60
2021/09/14 10:37:50;;;;;;;5.82;3.50;;;;;;;;;;5015915;28;20022;-60
2021/09/14 10:40:16;;;;;;;6.07;3.75;;;;;;;;;;5018501;28;20026;-61
2021/09/14 10:42:42;;;;;;;6.00;3.30;;;;;;;;;;5015834;28;20635;-60
2021/09/14 10:45:12;;;;;;;4.97;3.35;;;;;;;;;;5027308;28;20025;-61
2021/09/14 10:47:39;;;;;;;4.78;3.40;;;;;;;;;;5020033;28;20473;-60
2021/09/14 10:50:05;;;;;;;5.30;3.33;;;;;;;;;;5020110;28;20025;-60
2021/09/14 10:52:33;;;;;;;4.18;2.90;;;;;;;;;;5021197;28;20034;-60
2021/09/14 10:55:03;;;;;;;5.28;3.63;;;;;;;;;;5017140;28;20017;-60
2021/09/14 10:57:33;;;;;;;5.13;3.65;;;;;;;;;;5027113;28;20511;-60
2021/09/14 10:59:58;;;;;;;6.07;3.35;;;;;;;;;;5028635;28;20386;-61
2021/09/14 11:02:24;;;;;;;4.57;3.10;;;;;;;;;;5027866;28;20120;-59
2021/09/14 11:04:49;;;;;;;4.95;3.47;;;;;;;;;;5028336;28;20017;-60
2021/09/14 11:07:20;;;;;;;4.63;3.50;;;;;;;;;;5023992;28;20398;-60
2021/09/14 11:09:51;;;;;;;5.82;3.45;;;;;;;;;;5019209;28;20104;-61
2021/09/14 11:12:20;;;;;;;6.60;3.88;;;;;;;;;;5027439;28;20485;-60
2021/09/14 11:14:45;;;;;;;7.53;3.72;;;;;;;;;;5021068;28;20021;-60
2021/09/14 11:17:20;;;;;;;5.20;3.33;;;;;;;;;;5022968;28;20511;-60
2021/09/14 11:19:45;;;;;;;4.32;3.38;;;;;;;;;;5019997;28;20916;-60
2021/09/14 11:22:10;;;;;;;3.80;2.80;;;;;;;;;;5017448;28;20025;-60
2021/09/14 11:24:36;;;;;;;7.33;3.13;;;;;;;;;;5018549;28;20473;-60
2021/09/14 11:27:01;;;;;;;6.10;3.37;;;;;;;;;;5019927;28;20029;-59
2021/09/14 11:29:26;;;;;;;5.73;3.63;;;;;;;;;;5016081;28;20030;-60
2021/09/14 11:31:51;;;;;;;7.50;3.63;;;;;;;;;;5020751;28;20288;-61
2021/09/14 11:34:20;;;;;;;6.37;3.80;;;;;;;;;;5018646;28;20042;-59
2021/09/14 11:36:47;;;;;;;4.72;3.10;;;;;;;;;;5017390;28;20508;-60
2021/09/14 11:39:12;;;;;;;4.32;3.70;;;;;;;;;;5016865;28;20044;-59
2021/09/14 11:41:38;;;;;;;6.35;3.70;;;;;;;;;;5015455;28;20045;-59
2021/09/14 11:44:04;;;;;;;5.30;3.20;;;;;;;;;;5016955;28;20045;-59
2021/09/14 11:46:29;;;;;;;6.55;4.13;;;;;;;;;;5017603;28;20033;-60
2021/09/14 11:49:02;;;;;;;7.18;3.83;;;;;;;;;;5019771;28;20425;-59
2021/09/14 11:51:28;;;;;;;4.95;3.10;;;;;;;;;;5017719;28;20033;-60
2021/09/14 11:53:54;;;;;;;4.95;3.42;;;;;;;;;;5021320;28;20370;-60
2021/09/14 11:56:20;;;;;;;4.90;3.60;;;;;;;;;;5020920;28;20030;-60
2021/09/14 11:58:46;;;;;;;6.82;3.50;;;;;;;;;;5023343;28;20025;-60
2021/09/14 12:01:12;;;;;;;4.38;3.25;;;;;;;;;;5020698;28;20075;-60
2021/09/14 12:03:54;;;;;;;4.35;3.35;;;;;;;;;;5020614;28;20033;-59
2021/09/14 12:06:46;;;;;;;4.85;3.45;;;;;;;;;;5024464;28;20017;-60
2021/09/14 12:09:11;;;;;;;6.38;4.03;;;;;;;;;;4996077;28;20121;-61
2021/09/14 12:11:39;;;;;;;6.03;3.77;;;;;;;;;;4994900;28;20132;-59
2021/09/14 12:14:05;;;;;;;5.13;4.10;;;;;;;;;;4997271;28;20291;-59
2021/09/14 12:16:39;;;;;;;5.35;3.83;;;;;;;;;;4989435;28;20038;-60
2021/09/14 12:19:04;;;;;;;5.18;3.50;;;;;;;;;;4991206;28;20037;-60
2021/09/14 12:21:30;;;;;;;4.75;3.72;;;;;;;;;;4991553;28;20026;-60
2021/09/14 12:23:56;;;;;;;4.70;3.50;;;;;;;;;;4994283;28;20072;-60
2021/09/14 12:26:25;;;;;;;5.63;4.00;;;;;;;;;;4998741;28;20042;-61
2021/09/14 12:28:52;;;;;;;3.83;2.92;;;;;;;;;;5000542;28;20100;-60
2021/09/14 12:31:17;;;;;;;4.57;3.35;;;;;;;;;;4997512;28;20486;-60
2021/09/14 12:33:43;;;;;;;6.45;3.83;;;;;;;;;;5001462;28;20061;-60
2021/09/14 12:36:09;;;;;;;5.00;3.38;;;;;;;;;;5001189;28;20037;-60
2021/09/14 12:38:34;;;;;;;4.88;3.70;;;;;;;;;;4994243;28;20180;-60
2021/09/14 12:40:59;;;;;;;4.40;3.78;;;;;;;;;;4997564;28;20041;-60
2021/09/14 12:43:24;;;;;;;6.53;3.83;;;;;;;;;;4995895;28;20019;-60
2021/09/14 12:45:50;;;;;;;4.87;4.27;;;;;;;;;;5007444;28;20287;-60
2021/09/14 12:48:15;;;;;;;5.50;3.83;;;;;;;;;;5017065;28;20681;-60
2021/09/14 12:50:40;;;;;;;5.77;3.67;;;;;;;;;;5019329;28;20087;-60
2021/09/14 12:53:05;;;;;;;4.43;3.00;;;;;;;;;;5014826;28;20026;-59
2021/09/14 12:55:34;;;;;;;4.53;3.53;;;;;;;;;;5016689;28;20304;-60
2021/09/14 12:58:01;;;;;;;5.65;3.90;;;;;;;;;;5021028;28;20022;-59
2021/09/14 13:00:26;;;;;;;5.57;4.05;;;;;;;;;;5019989;28;20022;-60
2021/09/14 13:02:51;;;;;;;6.27;3.67;;;;;;;;;;5015545;28;20025;-60
2021/09/14 13:05:16;;;;;;;5.80;3.90;;;;;;;;;;5018972;28;20936;-61
2021/09/14 13:07:42;;;;;;;5.50;4.00;;;;;;;;;;5015752;28;20018;-60
2021/09/14 13:10:09;;;;;;;5.65;3.78;;;;;;;;;;5021713;28;20466;-59
2021/09/14 13:12:34;;;;;;;5.75;3.70;;;;;;;;;;5022485;28;20038;-60
2021/09/14 13:17:43;;;;;;;5.43;4.20;;;;;;;;;;5022608;28;20413;-62
2021/09/14 13:20:09;;;;;;;5.90;4.00;;;;;;;;;;5030032;28;20013;-62
2021/09/14 13:22:35;;;;;;;6.93;4.63;;;;;;;;;;5028520;28;20284;-62
2021/09/14 13:25:00;;;;;;;9.60;4.20;;;;;;;;;;5044230;28;20017;-61
2021/09/14 13:27:25;;;;;;;6.07;3.23;;;;;;;;;;5028136;28;20075;-62
2021/09/14 13:29:50;;;;;;;5.03;4.03;;;;;;;;;;5029831;28;20271;-63
2021/09/14 13:32:15;;;;;;;6.40;3.90;;;;;;;;;;5029813;28;20072;-62
2021/09/14 13:34:41;;;;;;;4.50;3.60;;;;;;;;;;5030089;28;20264;-61
2021/09/14 13:37:06;;;;;;;7.73;3.40;;;;;;;;;;5026761;28;20773;-62
2021/09/14 13:39:31;;;;;;;4.82;3.47;;;;;;;;;;5030496;28;20114;-63
2021/09/14 13:41:57;;;;;;;3.47;2.87;;;;;;;;;;5029930;28;20501;-62
2021/09/14 13:46:54;;;;;;;4.35;2.53;;;;;;;;;;5028532;28;20057;-62
2021/09/14 13:49:20;;;;;;;3.88;2.30;;;;;;;;;;5028843;28;20053;-62
2021/09/14 13:51:45;;;;;;;5.53;2.60;;;;;;;;;;5030490;28;20521;-60
2021/09/14 13:54:10;;;;;;;7.82;4.00;;;;;;;;;;5030306;28;20733;-62
2021/09/14 13:56:35;;;;;;;7.50;3.83;;;;;;;;;;5030679;28;20104;-61
2021/09/14 13:59:01;;;;;;;5.30;3.70;;;;;;;;;;5026771;28;20064;-61
2021/09/14 14:01:27;;;;;;;6.20;4.40;;;;;;;;;;5027699;28;20028;-61
2021/09/14 14:03:53;;;;;;;6.55;4.85;;;;;;;;;;5030230;28;20752;-63
2021/09/14 14:06:18;;;;;;;7.70;5.10;;;;;;;;;;5030235;28;20033;-61
2021/09/14 14:08:44;;;;;;;8.05;5.20;;;;;;;;;;5029390;28;20025;-61
2021/09/14 14:11:09;;;;;;;7.60;5.70;;;;;;;;;;5030172;28;20072;-61
2021/09/14 14:13:35;;;;;;;7.00;4.27;;;;;;;;;;5029781;28;20021;-62
2021/09/14 14:16:00;;;;;;;6.72;5.00;;;;;;;;;;5030302;28;20252;-62
2021/09/14 14:18:25;;;;;;;5.45;3.75;;;;;;;;;;5029928;28;20018;-62
2021/09/14 14:20:51;;;;;;;6.03;3.80;;;;;;;;;;5028302;28;20555;-62
2021/09/14 14:23:16;;;;;;;6.65;4.60;;;;;;;;;;5029886;28;20481;-61
2021/09/14 14:25:42;;;;;;;6.28;4.20;;;;;;;;;;5030125;28;20419;-61
2021/09/14 14:28:07;;;;;;;8.75;4.53;;;;;;;;;;5029963;28;20431;-61
2021/09/14 14:30:32;;;;;;;6.10;5.17;;;;;;;;;;5025742;28;20022;-62
2021/09/14 14:32:58;;;;;;;6.15;4.18;;;;;;;;;;5028998;28;20025;-62
2021/09/14 14:35:24;;;;;;;5.88;3.70;;;;;;;;;;5029337;28;20081;-62
2021/09/14 14:37:51;;;;;;;7.70;4.47;;;;;;;;;;5045073;28;20021;-62
2021/09/14 14:40:16;;;;;;;4.95;4.20;;;;;;;;;;5027674;28;20124;-62
2021/09/14 14:42:41;;;;;;;6.40;4.50;;;;;;;;;;5027140;28;20446;-62
2021/09/14 14:45:06;;;;;;;9.97;4.60;;;;;;;;;;5029360;28;20774;-62
2021/09/14 14:47:32;;;;;;;5.40;4.18;;;;;;;;;;5029150;28;20335;-62
2021/09/14 14:49:57;;;;;;;4.57;3.73;;;;;;;;;;5029040;28;20026;-62
2021/09/14 14:52:22;;;;;;;4.47;3.53;;;;;;;;;;5020834;28;20295;-63
2021/09/14 14:54:47;;;;;;;6.25;4.43;;;;;;;;;;5020524;28;20022;-63
2021/09/14 14:57:12;;;;;;;5.17;3.67;;;;;;;;;;5016917;28;20025;-62
2021/09/14 14:59:38;;;;;;;5.97;3.70;;;;;;;;;;5020790;28;20045;-62
2021/09/14 15:02:03;;;;;;;7.40;3.90;;;;;;;;;;5020660;28;20029;-61
2021/09/14 15:04:28;;;;;;;5.87;4.33;;;;;;;;;;5026079;28;20017;-62
2021/09/14 15:06:53;;;;;;;4.83;3.87;;;;;;;;;;5028122;28;20275;-61
2021/09/14 15:09:20;;;;;;;6.53;4.97;;;;;;;;;;5016397;28;20485;-62
2021/09/14 15:11:46;;;;;;;5.63;4.05;;;;;;;;;;5015559;28;20029;-62
2021/09/14 15:14:11;;;;;;;6.57;4.80;;;;;;;;;;5025009;28;20029;-62
2021/09/14 15:16:36;;;;;;;4.97;3.97;;;;;;;;;;5025164;28;20108;-61
2021/09/14 15:19:01;;;;;;;6.93;3.97;;;;;;;;;;5027602;28;20025;-62
2021/09/14 15:21:26;;;;;;;6.57;4.53;;;;;;;;;;5026887;28;20136;-62
2021/09/14 15:23:51;;;;;;;5.70;4.57;;;;;;;;;;5041817;28;20037;-61
2021/09/14 15:26:17;;;;;;;5.40;4.63;;;;;;;;;;5025205;28;20034;-61
2021/09/14 15:28:44;;;;;;;4.95;3.92;;;;;;;;;;5017670;28;20277;-62
2021/09/14 15:31:09;;;;;;;4.95;3.95;;;;;;;;;;5016343;28;20089;-61
2021/09/14 15:33:34;;;;;;;5.37;4.50;;;;;;;;;;5017752;28;20374;-61